sensor_id;sensor_type;location;lat;lon;timestamp;P1;durP1;ratioP1;P2;durP2;ratioP2
20245;SDS011;10281;54.406;18.556;2023-04-15T00:02:20;16.17;;;12.80;;
20245;SDS011;10281;54.406;18.556;2023-04-15T00:04:47;16.07;;;13.10;;
20245;SDS011;10281;54.406;18.556;2023-04-15T00:07:14;18.97;;;14.63;;
20245;SDS011;10281;54.406;18.556;2023-04-15T00:09:40;17.87;;;14.20;;
20245;SDS011;10281;54.406;18.556;2023-04-15T00:12:07;16.00;;;13.67;;
20245;SDS011;10281;54.406;18.556;2023-04-15T00:14:34;16.33;;;13.43;;
20245;SDS011;10281;54.406;18.556;2023-04-15T00:17:01;17.63;;;13.97;;
20245;SDS011;10281;54.406;18.556;2023-04-15T00:19:30;16.03;;;14.10;;
20245;SDS011;10281;54.406;18.556;2023-04-15T00:21:58;15.97;;;13.60;;
20245;SDS011;10281;54.406;18.556;2023-04-15T00:24:25;17.90;;;14.20;;
20245;SDS011;10281;54.406;18.556;2023-04-15T00:26:52;18.93;;;13.73;;
20245;SDS011;10281;54.406;18.556;2023-04-15T00:29:19;16.83;;;15.03;;
20245;SDS011;10281;54.406;18.556;2023-04-15T00:31:45;18.47;;;14.90;;
20245;SDS011;10281;54.406;18.556;2023-04-15T00:34:12;17.47;;;14.10;;
20245;SDS011;10281;54.406;18.556;2023-04-15T00:36:39;17.80;;;14.97;;
20245;SDS011;10281;54.406;18.556;2023-04-15T00:39:06;17.23;;;14.67;;
20245;SDS011;10281;54.406;18.556;2023-04-15T00:41:33;17.60;;;14.97;;
20245;SDS011;10281;54.406;18.556;2023-04-15T00:44:00;16.83;;;14.97;;
20245;SDS011;10281;54.406;18.556;2023-04-15T00:46:27;16.97;;;14.63;;
20245;SDS011;10281;54.406;18.556;2023-04-15T00:48:55;21.17;;;15.60;;
20245;SDS011;10281;54.406;18.556;2023-04-15T00:51:22;17.93;;;15.60;;
20245;SDS011;10281;54.406;18.556;2023-04-15T00:53:50;20.20;;;15.93;;
20245;SDS011;10281;54.406;18.556;2023-04-15T00:56:17;20.93;;;15.43;;
20245;SDS011;10281;54.406;18.556;2023-04-15T00:58:46;17.70;;;15.53;;
20245;SDS011;10281;54.406;18.556;2023-04-15T01:01:13;16.77;;;14.97;;
20245;SDS011;10281;54.406;18.556;2023-04-15T01:03:40;19.83;;;16.13;;
20245;SDS011;10281;54.406;18.556;2023-04-15T01:06:07;18.23;;;15.50;;
20245;SDS011;10281;54.406;18.556;2023-04-15T01:08:34;19.10;;;16.00;;
20245;SDS011;10281;54.406;18.556;2023-04-15T01:11:00;20.53;;;15.70;;
20245;SDS011;10281;54.406;18.556;2023-04-15T01:13:28;19.10;;;15.57;;
20245;SDS011;10281;54.406;18.556;2023-04-15T01:15:56;18.17;;;15.83;;
20245;SDS011;10281;54.406;18.556;2023-04-15T01:18:23;18.70;;;14.63;;
20245;SDS011;10281;54.406;18.556;2023-04-15T01:20:50;19.63;;;15.33;;
20245;SDS011;10281;54.406;18.556;2023-04-15T01:23:17;20.07;;;16.07;;
20245;SDS011;10281;54.406;18.556;2023-04-15T01:25:43;19.50;;;15.97;;
20245;SDS011;10281;54.406;18.556;2023-04-15T01:28:12;19.30;;;15.37;;
20245;SDS011;10281;54.406;18.556;2023-04-15T01:30:39;19.67;;;15.23;;
20245;SDS011;10281;54.406;18.556;2023-04-15T01:33:05;18.30;;;14.97;;
20245;SDS011;10281;54.406;18.556;2023-04-15T01:35:32;19.23;;;15.07;;
20245;SDS011;10281;54.406;18.556;2023-04-15T01:38:02;17.20;;;14.27;;
20245;SDS011;10281;54.406;18.556;2023-04-15T01:40:32;18.60;;;14.37;;
20245;SDS011;10281;54.406;18.556;2023-04-15T01:43:00;18.33;;;15.07;;
20245;SDS011;10281;54.406;18.556;2023-04-15T01:45:28;19.27;;;15.00;;
20245;SDS011;10281;54.406;18.556;2023-04-15T01:47:55;19.93;;;14.93;;
20245;SDS011;10281;54.406;18.556;2023-04-15T01:50:22;18.23;;;14.40;;
20245;SDS011;10281;54.406;18.556;2023-04-15T01:52:49;16.67;;;14.43;;
20245;SDS011;10281;54.406;18.556;2023-04-15T01:55:16;18.50;;;15.17;;
20245;SDS011;10281;54.406;18.556;2023-04-15T01:57:43;19.17;;;14.67;;
20245;SDS011;10281;54.406;18.556;2023-04-15T02:00:11;18.47;;;14.57;;
20245;SDS011;10281;54.406;18.556;2023-04-15T02:02:38;18.57;;;14.50;;
20245;SDS011;10281;54.406;18.556;2023-04-15T02:05:04;17.00;;;13.53;;
20245;SDS011;10281;54.406;18.556;2023-04-15T02:07:31;21.70;;;13.73;;
20245;SDS011;10281;54.406;18.556;2023-04-15T02:09:58;15.07;;;13.50;;
20245;SDS011;10281;54.406;18.556;2023-04-15T02:12:24;20.63;;;14.03;;
20245;SDS011;10281;54.406;18.556;2023-04-15T02:14:51;16.23;;;13.87;;
20245;SDS011;10281;54.406;18.556;2023-04-15T02:17:18;15.97;;;13.77;;
20245;SDS011;10281;54.406;18.556;2023-04-15T02:19:45;15.33;;;13.23;;
20245;SDS011;10281;54.406;18.556;2023-04-15T02:22:12;17.53;;;12.93;;
20245;SDS011;10281;54.406;18.556;2023-04-15T02:24:41;15.87;;;13.37;;
20245;SDS011;10281;54.406;18.556;2023-04-15T02:27:08;16.57;;;13.27;;
20245;SDS011;10281;54.406;18.556;2023-04-15T02:29:34;15.23;;;12.90;;
20245;SDS011;10281;54.406;18.556;2023-04-15T02:32:01;16.63;;;13.20;;
20245;SDS011;10281;54.406;18.556;2023-04-15T02:34:27;17.50;;;12.97;;
20245;SDS011;10281;54.406;18.556;2023-04-15T02:36:54;17.07;;;12.70;;
20245;SDS011;10281;54.406;18.556;2023-04-15T02:39:22;13.50;;;12.07;;
20245;SDS011;10281;54.406;18.556;2023-04-15T02:41:49;16.13;;;12.63;;
20245;SDS011;10281;54.406;18.556;2023-04-15T02:44:17;14.63;;;12.67;;
20245;SDS011;10281;54.406;18.556;2023-04-15T02:46:45;15.17;;;12.63;;
20245;SDS011;10281;54.406;18.556;2023-04-15T02:49:14;17.63;;;12.47;;
20245;SDS011;10281;54.406;18.556;2023-04-15T02:51:41;16.43;;;12.53;;
20245;SDS011;10281;54.406;18.556;2023-04-15T02:54:07;18.90;;;13.37;;
20245;SDS011;10281;54.406;18.556;2023-04-15T02:56:34;16.17;;;12.80;;
20245;SDS011;10281;54.406;18.556;2023-04-15T02:59:01;24.20;;;12.67;;
20245;SDS011;10281;54.406;18.556;2023-04-15T03:04:12;15.43;;;13.20;;
20245;SDS011;10281;54.406;18.556;2023-04-15T03:06:38;15.73;;;12.57;;
20245;SDS011;10281;54.406;18.556;2023-04-15T03:09:05;15.57;;;12.20;;
20245;SDS011;10281;54.406;18.556;2023-04-15T03:11:32;18.40;;;12.97;;
20245;SDS011;10281;54.406;18.556;2023-04-15T03:14:01;16.20;;;13.50;;
20245;SDS011;10281;54.406;18.556;2023-04-15T03:16:27;15.10;;;12.17;;
20245;SDS011;10281;54.406;18.556;2023-04-15T03:18:54;14.37;;;12.80;;
20245;SDS011;10281;54.406;18.556;2023-04-15T03:21:21;16.90;;;12.93;;
20245;SDS011;10281;54.406;18.556;2023-04-15T03:23:48;14.97;;;11.93;;
20245;SDS011;10281;54.406;18.556;2023-04-15T03:28:53;14.17;;;11.93;;
20245;SDS011;10281;54.406;18.556;2023-04-15T03:31:20;14.03;;;12.47;;
20245;SDS011;10281;54.406;18.556;2023-04-15T03:33:46;15.67;;;12.40;;
20245;SDS011;10281;54.406;18.556;2023-04-15T03:36:13;17.67;;;12.60;;
20245;SDS011;10281;54.406;18.556;2023-04-15T03:38:40;14.93;;;12.63;;
20245;SDS011;10281;54.406;18.556;2023-04-15T03:41:07;14.97;;;12.47;;
20245;SDS011;10281;54.406;18.556;2023-04-15T03:43:34;14.93;;;12.83;;
20245;SDS011;10281;54.406;18.556;2023-04-15T03:46:01;16.50;;;13.37;;
20245;SDS011;10281;54.406;18.556;2023-04-15T03:48:27;16.70;;;12.70;;
20245;SDS011;10281;54.406;18.556;2023-04-15T03:50:54;16.63;;;12.63;;
20245;SDS011;10281;54.406;18.556;2023-04-15T03:53:21;16.67;;;13.10;;
20245;SDS011;10281;54.406;18.556;2023-04-15T03:55:48;17.83;;;13.67;;
20245;SDS011;10281;54.406;18.556;2023-04-15T03:58:14;17.90;;;12.60;;
20245;SDS011;10281;54.406;18.556;2023-04-15T04:00:41;18.10;;;13.37;;
20245;SDS011;10281;54.406;18.556;2023-04-15T04:03:08;18.23;;;13.60;;
20245;SDS011;10281;54.406;18.556;2023-04-15T04:05:34;16.13;;;13.43;;
20245;SDS011;10281;54.406;18.556;2023-04-15T04:08:03;17.60;;;13.80;;
20245;SDS011;10281;54.406;18.556;2023-04-15T04:10:30;18.53;;;14.17;;
20245;SDS011;10281;54.406;18.556;2023-04-15T04:12:57;16.90;;;14.07;;
20245;SDS011;10281;54.406;18.556;2023-04-15T04:15:23;16.23;;;14.40;;
20245;SDS011;10281;54.406;18.556;2023-04-15T04:17:50;17.60;;;14.37;;
20245;SDS011;10281;54.406;18.556;2023-04-15T04:20:17;16.97;;;14.57;;
20245;SDS011;10281;54.406;18.556;2023-04-15T04:22:43;18.27;;;14.27;;
20245;SDS011;10281;54.406;18.556;2023-04-15T04:25:10;17.07;;;14.20;;
20245;SDS011;10281;54.406;18.556;2023-04-15T04:27:37;18.30;;;14.53;;
20245;SDS011;10281;54.406;18.556;2023-04-15T04:30:04;17.03;;;14.07;;
20245;SDS011;10281;54.406;18.556;2023-04-15T04:32:31;17.13;;;13.63;;
20245;SDS011;10281;54.406;18.556;2023-04-15T04:34:58;16.50;;;14.10;;
20245;SDS011;10281;54.406;18.556;2023-04-15T04:37:24;18.73;;;13.97;;
20245;SDS011;10281;54.406;18.556;2023-04-15T04:39:51;18.90;;;14.30;;
20245;SDS011;10281;54.406;18.556;2023-04-15T04:42:18;16.70;;;13.93;;
20245;SDS011;10281;54.406;18.556;2023-04-15T04:44:45;16.67;;;14.27;;
20245;SDS011;10281;54.406;18.556;2023-04-15T04:47:11;16.93;;;13.47;;
20245;SDS011;10281;54.406;18.556;2023-04-15T04:49:39;15.47;;;13.07;;
20245;SDS011;10281;54.406;18.556;2023-04-15T04:52:05;17.43;;;13.70;;
20245;SDS011;10281;54.406;18.556;2023-04-15T04:54:32;16.20;;;13.07;;
20245;SDS011;10281;54.406;18.556;2023-04-15T04:56:59;17.17;;;13.83;;
20245;SDS011;10281;54.406;18.556;2023-04-15T04:59:26;17.53;;;14.53;;
20245;SDS011;10281;54.406;18.556;2023-04-15T05:01:52;18.43;;;14.23;;
20245;SDS011;10281;54.406;18.556;2023-04-15T05:04:19;19.17;;;14.47;;
20245;SDS011;10281;54.406;18.556;2023-04-15T05:06:46;24.33;;;18.43;;
20245;SDS011;10281;54.406;18.556;2023-04-15T05:09:12;17.93;;;14.10;;
20245;SDS011;10281;54.406;18.556;2023-04-15T05:11:39;17.13;;;13.97;;
20245;SDS011;10281;54.406;18.556;2023-04-15T05:14:05;18.93;;;15.50;;
20245;SDS011;10281;54.406;18.556;2023-04-15T05:16:32;16.37;;;13.83;;
20245;SDS011;10281;54.406;18.556;2023-04-15T05:18:59;16.87;;;13.90;;
20245;SDS011;10281;54.406;18.556;2023-04-15T05:21:25;22.23;;;14.03;;
20245;SDS011;10281;54.406;18.556;2023-04-15T05:23:52;18.30;;;13.73;;
20245;SDS011;10281;54.406;18.556;2023-04-15T05:26:19;18.13;;;13.87;;
20245;SDS011;10281;54.406;18.556;2023-04-15T05:28:46;17.80;;;13.73;;
20245;SDS011;10281;54.406;18.556;2023-04-15T05:31:14;19.93;;;14.20;;
20245;SDS011;10281;54.406;18.556;2023-04-15T05:33:41;15.37;;;13.53;;
20245;SDS011;10281;54.406;18.556;2023-04-15T05:36:08;17.63;;;13.63;;
20245;SDS011;10281;54.406;18.556;2023-04-15T05:38:35;17.80;;;12.83;;
20245;SDS011;10281;54.406;18.556;2023-04-15T05:41:02;18.60;;;13.97;;
20245;SDS011;10281;54.406;18.556;2023-04-15T05:43:28;17.47;;;14.27;;
20245;SDS011;10281;54.406;18.556;2023-04-15T05:45:55;16.33;;;13.97;;
20245;SDS011;10281;54.406;18.556;2023-04-15T05:48:22;18.07;;;14.17;;
20245;SDS011;10281;54.406;18.556;2023-04-15T05:50:49;20.63;;;14.10;;
20245;SDS011;10281;54.406;18.556;2023-04-15T05:53:16;19.77;;;13.73;;
20245;SDS011;10281;54.406;18.556;2023-04-15T05:55:42;17.57;;;14.17;;
20245;SDS011;10281;54.406;18.556;2023-04-15T05:58:09;18.50;;;13.50;;
20245;SDS011;10281;54.406;18.556;2023-04-15T06:00:36;14.97;;;13.10;;
20245;SDS011;10281;54.406;18.556;2023-04-15T06:03:03;17.70;;;14.00;;
20245;SDS011;10281;54.406;18.556;2023-04-15T06:05:30;18.23;;;14.13;;
20245;SDS011;10281;54.406;18.556;2023-04-15T06:07:57;18.13;;;13.17;;
20245;SDS011;10281;54.406;18.556;2023-04-15T06:10:24;16.57;;;13.97;;
20245;SDS011;10281;54.406;18.556;2023-04-15T06:12:51;23.10;;;14.23;;
20245;SDS011;10281;54.406;18.556;2023-04-15T06:15:18;20.60;;;13.67;;
20245;SDS011;10281;54.406;18.556;2023-04-15T06:17:44;20.10;;;14.37;;
20245;SDS011;10281;54.406;18.556;2023-04-15T06:20:11;16.43;;;14.03;;
20245;SDS011;10281;54.406;18.556;2023-04-15T06:22:38;15.00;;;13.40;;
20245;SDS011;10281;54.406;18.556;2023-04-15T06:25:05;15.50;;;13.10;;
20245;SDS011;10281;54.406;18.556;2023-04-15T06:27:33;17.07;;;13.97;;
20245;SDS011;10281;54.406;18.556;2023-04-15T06:30:00;15.87;;;13.10;;
20245;SDS011;10281;54.406;18.556;2023-04-15T06:32:27;19.33;;;13.67;;
20245;SDS011;10281;54.406;18.556;2023-04-15T06:34:54;15.93;;;13.03;;
20245;SDS011;10281;54.406;18.556;2023-04-15T06:37:20;15.53;;;12.60;;
20245;SDS011;10281;54.406;18.556;2023-04-15T06:39:47;17.27;;;13.23;;
20245;SDS011;10281;54.406;18.556;2023-04-15T06:42:14;16.53;;;12.87;;
20245;SDS011;10281;54.406;18.556;2023-04-15T06:44:40;15.33;;;13.20;;
20245;SDS011;10281;54.406;18.556;2023-04-15T06:47:07;14.63;;;12.13;;
20245;SDS011;10281;54.406;18.556;2023-04-15T06:49:34;19.20;;;13.20;;
20245;SDS011;10281;54.406;18.556;2023-04-15T06:52:01;16.33;;;12.87;;
20245;SDS011;10281;54.406;18.556;2023-04-15T06:54:29;19.30;;;13.47;;
20245;SDS011;10281;54.406;18.556;2023-04-15T06:56:56;15.80;;;11.70;;
20245;SDS011;10281;54.406;18.556;2023-04-15T06:59:23;16.27;;;12.03;;
20245;SDS011;10281;54.406;18.556;2023-04-15T07:01:49;16.83;;;12.47;;
20245;SDS011;10281;54.406;18.556;2023-04-15T07:04:16;14.80;;;11.83;;
20245;SDS011;10281;54.406;18.556;2023-04-15T07:06:43;17.43;;;11.63;;
20245;SDS011;10281;54.406;18.556;2023-04-15T07:09:09;15.63;;;12.43;;
20245;SDS011;10281;54.406;18.556;2023-04-15T07:11:36;15.97;;;11.87;;
20245;SDS011;10281;54.406;18.556;2023-04-15T07:14:03;16.27;;;11.73;;
20245;SDS011;10281;54.406;18.556;2023-04-15T07:16:30;16.03;;;12.43;;
20245;SDS011;10281;54.406;18.556;2023-04-15T07:18:56;15.73;;;11.80;;
20245;SDS011;10281;54.406;18.556;2023-04-15T07:21:24;15.00;;;11.77;;
20245;SDS011;10281;54.406;18.556;2023-04-15T07:23:52;15.23;;;12.33;;
20245;SDS011;10281;54.406;18.556;2023-04-15T07:26:18;16.07;;;11.07;;
20245;SDS011;10281;54.406;18.556;2023-04-15T07:28:46;15.10;;;11.87;;
20245;SDS011;10281;54.406;18.556;2023-04-15T07:31:12;14.17;;;10.80;;
20245;SDS011;10281;54.406;18.556;2023-04-15T07:33:39;14.27;;;11.00;;
20245;SDS011;10281;54.406;18.556;2023-04-15T07:36:06;15.87;;;11.70;;
20245;SDS011;10281;54.406;18.556;2023-04-15T07:38:33;14.13;;;11.20;;
20245;SDS011;10281;54.406;18.556;2023-04-15T07:41:00;13.80;;;10.93;;
20245;SDS011;10281;54.406;18.556;2023-04-15T07:43:27;14.00;;;11.77;;
20245;SDS011;10281;54.406;18.556;2023-04-15T07:45:54;15.17;;;11.53;;
20245;SDS011;10281;54.406;18.556;2023-04-15T07:48:21;15.97;;;11.80;;
20245;SDS011;10281;54.406;18.556;2023-04-15T07:50:47;13.23;;;10.97;;
20245;SDS011;10281;54.406;18.556;2023-04-15T07:53:14;15.97;;;11.80;;
20245;SDS011;10281;54.406;18.556;2023-04-15T07:55:40;14.10;;;11.30;;
20245;SDS011;10281;54.406;18.556;2023-04-15T07:58:07;12.23;;;10.93;;
20245;SDS011;10281;54.406;18.556;2023-04-15T08:00:34;15.07;;;10.63;;
20245;SDS011;10281;54.406;18.556;2023-04-15T08:03:00;14.73;;;10.70;;
20245;SDS011;10281;54.406;18.556;2023-04-15T08:05:27;14.43;;;11.10;;
20245;SDS011;10281;54.406;18.556;2023-04-15T08:07:54;15.07;;;10.87;;
20245;SDS011;10281;54.406;18.556;2023-04-15T08:10:21;13.03;;;10.87;;
20245;SDS011;10281;54.406;18.556;2023-04-15T08:12:48;15.93;;;11.70;;
20245;SDS011;10281;54.406;18.556;2023-04-15T08:15:15;15.50;;;11.17;;
20245;SDS011;10281;54.406;18.556;2023-04-15T08:17:42;15.40;;;10.57;;
20245;SDS011;10281;54.406;18.556;2023-04-15T08:20:09;13.60;;;10.50;;
20245;SDS011;10281;54.406;18.556;2023-04-15T08:22:36;11.70;;;10.47;;
20245;SDS011;10281;54.406;18.556;2023-04-15T08:25:03;16.10;;;10.40;;
20245;SDS011;10281;54.406;18.556;2023-04-15T08:27:30;13.60;;;10.70;;
20245;SDS011;10281;54.406;18.556;2023-04-15T08:29:57;13.93;;;10.63;;
20245;SDS011;10281;54.406;18.556;2023-04-15T08:32:23;14.03;;;9.87;;
20245;SDS011;10281;54.406;18.556;2023-04-15T08:34:51;14.00;;;10.70;;
20245;SDS011;10281;54.406;18.556;2023-04-15T08:37:18;13.70;;;10.10;;
20245;SDS011;10281;54.406;18.556;2023-04-15T08:39:44;14.63;;;10.70;;
20245;SDS011;10281;54.406;18.556;2023-04-15T08:42:14;15.07;;;9.63;;
20245;SDS011;10281;54.406;18.556;2023-04-15T08:44:42;19.33;;;11.53;;
20245;SDS011;10281;54.406;18.556;2023-04-15T08:47:09;14.03;;;10.37;;
20245;SDS011;10281;54.406;18.556;2023-04-15T08:49:39;19.57;;;10.80;;
20245;SDS011;10281;54.406;18.556;2023-04-15T08:52:07;14.83;;;10.50;;
20245;SDS011;10281;54.406;18.556;2023-04-15T08:54:34;14.77;;;10.33;;
20245;SDS011;10281;54.406;18.556;2023-04-15T08:57:03;10.97;;;9.47;;
20245;SDS011;10281;54.406;18.556;2023-04-15T08:59:30;12.13;;;9.80;;
20245;SDS011;10281;54.406;18.556;2023-04-15T09:01:57;14.90;;;10.57;;
20245;SDS011;10281;54.406;18.556;2023-04-15T09:04:24;11.00;;;9.80;;
20245;SDS011;10281;54.406;18.556;2023-04-15T09:06:51;13.47;;;10.23;;
20245;SDS011;10281;54.406;18.556;2023-04-15T09:09:17;13.60;;;9.97;;
20245;SDS011;10281;54.406;18.556;2023-04-15T09:11:44;16.00;;;10.67;;
20245;SDS011;10281;54.406;18.556;2023-04-15T09:14:11;11.47;;;9.43;;
20245;SDS011;10281;54.406;18.556;2023-04-15T09:19:20;13.07;;;10.63;;
20245;SDS011;10281;54.406;18.556;2023-04-15T09:21:48;12.00;;;10.10;;
20245;SDS011;10281;54.406;18.556;2023-04-15T09:24:19;13.50;;;10.20;;
20245;SDS011;10281;54.406;18.556;2023-04-15T09:26:45;10.90;;;9.67;;
20245;SDS011;10281;54.406;18.556;2023-04-15T09:29:12;13.20;;;10.37;;
20245;SDS011;10281;54.406;18.556;2023-04-15T09:31:39;17.73;;;12.63;;
20245;SDS011;10281;54.406;18.556;2023-04-15T09:34:08;15.83;;;10.77;;
20245;SDS011;10281;54.406;18.556;2023-04-15T09:39:26;13.70;;;10.10;;
20245;SDS011;10281;54.406;18.556;2023-04-15T09:42:10;13.33;;;10.40;;
20245;SDS011;10281;54.406;18.556;2023-04-15T09:44:36;11.03;;;9.73;;
20245;SDS011;10281;54.406;18.556;2023-04-15T09:47:03;14.33;;;10.23;;
20245;SDS011;10281;54.406;18.556;2023-04-15T09:49:30;15.03;;;10.47;;
20245;SDS011;10281;54.406;18.556;2023-04-15T09:52:00;14.00;;;10.67;;
20245;SDS011;10281;54.406;18.556;2023-04-15T09:54:36;14.67;;;10.50;;
20245;SDS011;10281;54.406;18.556;2023-04-15T09:57:04;14.27;;;10.47;;
20245;SDS011;10281;54.406;18.556;2023-04-15T09:59:32;13.23;;;10.47;;
20245;SDS011;10281;54.406;18.556;2023-04-15T10:01:59;15.57;;;10.00;;
20245;SDS011;10281;54.406;18.556;2023-04-15T10:04:27;14.43;;;9.87;;
20245;SDS011;10281;54.406;18.556;2023-04-15T10:06:54;14.47;;;10.87;;
20245;SDS011;10281;54.406;18.556;2023-04-15T10:09:22;10.90;;;9.73;;
20245;SDS011;10281;54.406;18.556;2023-04-15T10:11:48;12.47;;;10.30;;
20245;SDS011;10281;54.406;18.556;2023-04-15T10:14:16;11.80;;;10.40;;
20245;SDS011;10281;54.406;18.556;2023-04-15T10:16:44;14.13;;;10.50;;
20245;SDS011;10281;54.406;18.556;2023-04-15T10:19:13;13.57;;;10.27;;
20245;SDS011;10281;54.406;18.556;2023-04-15T10:21:42;11.10;;;9.57;;
20245;SDS011;10281;54.406;18.556;2023-04-15T10:24:10;12.57;;;10.10;;
20245;SDS011;10281;54.406;18.556;2023-04-15T10:26:38;16.80;;;12.40;;
20245;SDS011;10281;54.406;18.556;2023-04-15T10:29:05;16.97;;;9.57;;
20245;SDS011;10281;54.406;18.556;2023-04-15T10:31:32;16.27;;;11.47;;
20245;SDS011;10281;54.406;18.556;2023-04-15T10:34:00;12.87;;;10.07;;
20245;SDS011;10281;54.406;18.556;2023-04-15T10:36:29;13.23;;;10.43;;
20245;SDS011;10281;54.406;18.556;2023-04-15T10:38:56;14.20;;;10.20;;
20245;SDS011;10281;54.406;18.556;2023-04-15T10:41:24;14.07;;;10.57;;
20245;SDS011;10281;54.406;18.556;2023-04-15T10:43:55;16.13;;;11.70;;
20245;SDS011;10281;54.406;18.556;2023-04-15T10:49:07;12.90;;;10.60;;
20245;SDS011;10281;54.406;18.556;2023-04-15T10:51:37;15.77;;;12.77;;
20245;SDS011;10281;54.406;18.556;2023-04-15T10:54:08;12.63;;;9.77;;
20245;SDS011;10281;54.406;18.556;2023-04-15T10:56:49;14.83;;;11.10;;
20245;SDS011;10281;54.406;18.556;2023-04-15T10:59:16;13.73;;;10.13;;
20245;SDS011;10281;54.406;18.556;2023-04-15T11:01:49;13.63;;;10.63;;
20245;SDS011;10281;54.406;18.556;2023-04-15T11:07:04;14.97;;;10.00;;
20245;SDS011;10281;54.406;18.556;2023-04-15T11:09:32;10.67;;;8.50;;
20245;SDS011;10281;54.406;18.556;2023-04-15T11:12:04;11.07;;;9.10;;
20245;SDS011;10281;54.406;18.556;2023-04-15T11:14:33;10.90;;;8.93;;
20245;SDS011;10281;54.406;18.556;2023-04-15T11:17:01;11.60;;;8.53;;
20245;SDS011;10281;54.406;18.556;2023-04-15T11:19:35;11.17;;;9.20;;
20245;SDS011;10281;54.406;18.556;2023-04-15T11:22:07;10.93;;;9.53;;
20245;SDS011;10281;54.406;18.556;2023-04-15T11:24:35;10.47;;;9.20;;
20245;SDS011;10281;54.406;18.556;2023-04-15T11:27:02;10.47;;;9.33;;
20245;SDS011;10281;54.406;18.556;2023-04-15T11:29:29;10.97;;;9.27;;
20245;SDS011;10281;54.406;18.556;2023-04-15T11:32:03;12.43;;;9.80;;
20245;SDS011;10281;54.406;18.556;2023-04-15T11:34:32;14.40;;;8.80;;
20245;SDS011;10281;54.406;18.556;2023-04-15T11:37:02;11.30;;;8.37;;
20245;SDS011;10281;54.406;18.556;2023-04-15T11:39:30;11.47;;;8.63;;
20245;SDS011;10281;54.406;18.556;2023-04-15T11:41:56;12.33;;;9.07;;
20245;SDS011;10281;54.406;18.556;2023-04-15T11:44:23;10.30;;;8.80;;
20245;SDS011;10281;54.406;18.556;2023-04-15T11:46:50;10.27;;;9.00;;
20245;SDS011;10281;54.406;18.556;2023-04-15T11:51:55;12.17;;;8.50;;
20245;SDS011;10281;54.406;18.556;2023-04-15T11:54:22;9.60;;;8.03;;
20245;SDS011;10281;54.406;18.556;2023-04-15T11:56:49;10.27;;;9.13;;
20245;SDS011;10281;54.406;18.556;2023-04-15T11:59:17;10.20;;;8.43;;
20245;SDS011;10281;54.406;18.556;2023-04-15T12:01:44;9.87;;;8.70;;
20245;SDS011;10281;54.406;18.556;2023-04-15T12:04:13;12.17;;;8.37;;
20245;SDS011;10281;54.406;18.556;2023-04-15T12:06:44;10.77;;;8.57;;
20245;SDS011;10281;54.406;18.556;2023-04-15T12:09:12;12.97;;;9.57;;
20245;SDS011;10281;54.406;18.556;2023-04-15T12:11:43;11.83;;;8.60;;
20245;SDS011;10281;54.406;18.556;2023-04-15T12:14:18;12.30;;;8.77;;
20245;SDS011;10281;54.406;18.556;2023-04-15T12:16:52;10.43;;;8.70;;
20245;SDS011;10281;54.406;18.556;2023-04-15T12:19:23;11.10;;;8.37;;
20245;SDS011;10281;54.406;18.556;2023-04-15T12:21:52;11.67;;;9.13;;
20245;SDS011;10281;54.406;18.556;2023-04-15T12:24:21;11.07;;;9.10;;
20245;SDS011;10281;54.406;18.556;2023-04-15T12:26:49;10.03;;;7.93;;
20245;SDS011;10281;54.406;18.556;2023-04-15T12:29:18;11.97;;;8.20;;
20245;SDS011;10281;54.406;18.556;2023-04-15T12:31:47;9.47;;;8.20;;
20245;SDS011;10281;54.406;18.556;2023-04-15T12:34:24;11.17;;;8.37;;
20245;SDS011;10281;54.406;18.556;2023-04-15T12:36:54;10.17;;;8.27;;
20245;SDS011;10281;54.406;18.556;2023-04-15T12:39:24;12.07;;;8.60;;
20245;SDS011;10281;54.406;18.556;2023-04-15T12:41:53;11.17;;;8.70;;
20245;SDS011;10281;54.406;18.556;2023-04-15T12:44:21;11.80;;;8.70;;
20245;SDS011;10281;54.406;18.556;2023-04-15T12:46:49;13.07;;;8.77;;
20245;SDS011;10281;54.406;18.556;2023-04-15T12:49:18;12.30;;;8.67;;
20245;SDS011;10281;54.406;18.556;2023-04-15T12:51:48;12.03;;;9.00;;
20245;SDS011;10281;54.406;18.556;2023-04-15T12:54:16;12.47;;;8.33;;
20245;SDS011;10281;54.406;18.556;2023-04-15T12:56:43;13.27;;;9.43;;
20245;SDS011;10281;54.406;18.556;2023-04-15T12:59:11;9.43;;;8.20;;
20245;SDS011;10281;54.406;18.556;2023-04-15T13:01:38;14.00;;;9.23;;
20245;SDS011;10281;54.406;18.556;2023-04-15T13:04:06;10.33;;;8.57;;
20245;SDS011;10281;54.406;18.556;2023-04-15T13:06:32;12.77;;;8.80;;
20245;SDS011;10281;54.406;18.556;2023-04-15T13:08:59;11.63;;;9.07;;
20245;SDS011;10281;54.406;18.556;2023-04-15T13:11:26;11.13;;;8.87;;
20245;SDS011;10281;54.406;18.556;2023-04-15T13:13:56;12.53;;;8.93;;
20245;SDS011;10281;54.406;18.556;2023-04-15T13:16:23;12.30;;;8.33;;
20245;SDS011;10281;54.406;18.556;2023-04-15T13:18:50;12.67;;;9.23;;
20245;SDS011;10281;54.406;18.556;2023-04-15T13:21:17;10.63;;;8.03;;
20245;SDS011;10281;54.406;18.556;2023-04-15T13:23:44;9.93;;;8.87;;
20245;SDS011;10281;54.406;18.556;2023-04-15T13:26:11;10.80;;;9.13;;
20245;SDS011;10281;54.406;18.556;2023-04-15T13:28:38;12.33;;;8.73;;
20245;SDS011;10281;54.406;18.556;2023-04-15T13:31:05;10.43;;;8.27;;
20245;SDS011;10281;54.406;18.556;2023-04-15T13:33:31;10.77;;;8.60;;
20245;SDS011;10281;54.406;18.556;2023-04-15T13:35:58;12.00;;;8.47;;
20245;SDS011;10281;54.406;18.556;2023-04-15T13:38:25;8.97;;;7.87;;
20245;SDS011;10281;54.406;18.556;2023-04-15T13:40:51;10.47;;;8.00;;
20245;SDS011;10281;54.406;18.556;2023-04-15T13:43:18;10.57;;;8.50;;
20245;SDS011;10281;54.406;18.556;2023-04-15T13:45:46;10.83;;;8.33;;
20245;SDS011;10281;54.406;18.556;2023-04-15T13:48:12;12.70;;;8.90;;
20245;SDS011;10281;54.406;18.556;2023-04-15T13:50:39;12.10;;;8.80;;
20245;SDS011;10281;54.406;18.556;2023-04-15T13:53:08;13.63;;;10.50;;
20245;SDS011;10281;54.406;18.556;2023-04-15T13:55:34;12.37;;;9.07;;
20245;SDS011;10281;54.406;18.556;2023-04-15T13:58:03;10.67;;;8.30;;
20245;SDS011;10281;54.406;18.556;2023-04-15T14:00:30;13.83;;;8.80;;
20245;SDS011;10281;54.406;18.556;2023-04-15T14:02:56;11.70;;;8.23;;
20245;SDS011;10281;54.406;18.556;2023-04-15T14:05:23;12.93;;;9.10;;
20245;SDS011;10281;54.406;18.556;2023-04-15T14:07:50;11.30;;;8.60;;
20245;SDS011;10281;54.406;18.556;2023-04-15T14:10:16;12.27;;;8.97;;
20245;SDS011;10281;54.406;18.556;2023-04-15T14:12:43;13.83;;;10.43;;
20245;SDS011;10281;54.406;18.556;2023-04-15T14:15:10;14.63;;;10.40;;
20245;SDS011;10281;54.406;18.556;2023-04-15T14:17:36;15.10;;;10.67;;
20245;SDS011;10281;54.406;18.556;2023-04-15T14:20:05;12.30;;;9.87;;
20245;SDS011;10281;54.406;18.556;2023-04-15T14:22:33;13.67;;;9.47;;
20245;SDS011;10281;54.406;18.556;2023-04-15T14:24:59;13.13;;;10.17;;
20245;SDS011;10281;54.406;18.556;2023-04-15T14:27:26;15.53;;;10.50;;
20245;SDS011;10281;54.406;18.556;2023-04-15T14:29:53;13.67;;;10.70;;
20245;SDS011;10281;54.406;18.556;2023-04-15T14:32:20;15.37;;;10.17;;